createdAt,value
2018-09-28T00:02:08.275Z,5.70
2018-09-28T00:04:37.508Z,5.20
2018-09-28T00:07:06.856Z,5.20
2018-09-28T00:09:36.128Z,5.30
2018-09-28T00:12:05.237Z,4.93
2018-09-28T00:14:34.319Z,5.67
2018-09-28T00:17:03.294Z,4.93
2018-09-28T00:19:32.517Z,5.43
2018-09-28T00:22:02.177Z,4.60
2018-09-28T00:24:31.187Z,5.20
2018-09-28T00:27:00.274Z,5.50
2018-09-28T00:29:29.272Z,5.43
2018-09-28T00:31:59.196Z,5.23
2018-09-28T00:34:28.654Z,5.67
2018-09-28T00:36:57.818Z,5.70
2018-09-28T00:39:27.136Z,5.20
2018-09-28T00:41:56.285Z,5.10
2018-09-28T00:44:25.634Z,5.67
2018-09-28T00:46:54.945Z,5.33
2018-09-28T00:49:23.921Z,5.23
2018-09-28T00:51:53.023Z,5.00
2018-09-28T00:54:22.230Z,5.30
2018-09-28T00:56:51.381Z,5.57
2018-09-28T00:59:20.600Z,5.67
2018-09-28T01:01:49.600Z,5.70
2018-09-28T01:04:18.849Z,5.70
2018-09-28T01:06:47.821Z,5.03
2018-09-28T01:09:17.227Z,5.83
2018-09-28T01:11:46.333Z,5.77
2018-09-28T01:14:15.383Z,5.57
2018-09-28T01:16:45.240Z,5.77
2018-09-28T01:19:14.351Z,6.20
2018-09-28T01:21:43.447Z,5.83
2018-09-28T01:24:12.744Z,5.77
2018-09-28T01:26:42.071Z,5.50
2018-09-28T01:29:11.187Z,6.73
2018-09-28T01:31:40.109Z,6.57
2018-09-28T01:34:09.035Z,6.07
2018-09-28T01:36:38.237Z,5.50
2018-09-28T01:39:09.039Z,5.40
2018-09-28T01:41:38.398Z,5.50
2018-09-28T01:44:07.378Z,5.67
2018-09-28T01:46:36.933Z,6.00
2018-09-28T01:49:06.053Z,5.63
2018-09-28T01:51:35.597Z,5.90
2018-09-28T01:54:06.071Z,6.77
2018-09-28T01:56:35.047Z,5.53
2018-09-28T01:59:04.194Z,6.50
2018-09-28T02:01:33.567Z,5.70
2018-09-28T02:04:02.828Z,5.67
2018-09-28T02:06:31.894Z,5.57
2018-09-28T02:09:01.014Z,6.00
2018-09-28T02:11:30.152Z,5.30
2018-09-28T02:13:59.839Z,5.20
2018-09-28T02:16:29.157Z,5.50
2018-09-28T02:18:58.513Z,5.70
2018-09-28T02:21:28.061Z,4.80
2018-09-28T02:23:58.018Z,5.23
2018-09-28T02:26:27.260Z,5.33
2018-09-28T02:28:56.236Z,5.90
2018-09-28T02:31:25.449Z,5.27
2018-09-28T02:33:54.800Z,5.87
2018-09-28T02:36:24.428Z,6.07
2018-09-28T02:38:54.365Z,5.57
2018-09-28T02:41:23.644Z,5.90
2018-09-28T02:43:52.851Z,5.17
2018-09-28T02:46:21.982Z,5.40
2018-09-28T02:48:51.185Z,5.17
2018-09-28T02:51:20.213Z,5.20
2018-09-28T02:53:49.252Z,5.60
2018-09-28T02:56:18.147Z,6.17
2018-09-28T02:58:47.523Z,5.67
2018-09-28T03:01:16.586Z,6.20
2018-09-28T03:03:45.991Z,6.27
2018-09-28T03:06:15.133Z,5.37
2018-09-28T03:08:44.355Z,5.80
2018-09-28T03:11:13.421Z,5.60
2018-09-28T03:13:42.553Z,6.23
2018-09-28T03:16:11.834Z,5.90
2018-09-28T03:18:41.036Z,5.83
2018-09-28T03:21:10.656Z,5.70
2018-09-28T03:23:40.232Z,5.27
2018-09-28T03:26:09.431Z,5.43
2018-09-28T03:28:38.733Z,5.87
2018-09-28T03:31:07.700Z,5.57
2018-09-28T03:33:36.888Z,6.20
2018-09-28T03:36:05.927Z,7.13
2018-09-28T03:38:35.609Z,5.87
2018-09-28T03:41:04.747Z,7.07
2018-09-28T03:43:34.221Z,6.03
2018-09-28T03:46:03.510Z,5.50
2018-09-28T03:48:32.908Z,6.37
2018-09-28T03:51:02.040Z,6.43
2018-09-28T03:53:30.965Z,6.20
2018-09-28T03:55:59.913Z,6.27
2018-09-28T03:58:28.886Z,5.70
2018-09-28T04:00:58.056Z,6.30
2018-09-28T04:03:27.243Z,6.50
2018-09-28T04:05:56.371Z,6.03
2018-09-28T04:08:26.528Z,5.73
2018-09-28T04:10:55.443Z,6.23
2018-09-28T04:13:30.943Z,5.90
2018-09-28T04:16:00.263Z,6.00
2018-09-28T04:18:29.567Z,5.77
2018-09-28T04:20:58.624Z,6.03
2018-09-28T04:23:27.697Z,5.73
2018-09-28T04:25:56.832Z,6.13
2018-09-28T04:28:26.172Z,6.37
2018-09-28T04:30:55.240Z,5.63
2018-09-28T04:33:24.583Z,5.80
2018-09-28T04:35:53.684Z,6.20
2018-09-28T04:38:22.764Z,5.93
2018-09-28T04:40:52.355Z,6.27
2018-09-28T04:43:21.469Z,6.50
2018-09-28T04:45:50.848Z,6.83
2018-09-28T04:48:20.046Z,7.10
2018-09-28T04:50:49.283Z,7.03
2018-09-28T04:53:19.006Z,7.00
2018-09-28T04:55:48.664Z,6.40
2018-09-28T04:58:17.781Z,6.80
2018-09-28T05:00:47.200Z,6.17
2018-09-28T05:03:16.486Z,7.70
2018-09-28T05:05:45.571Z,6.90
2018-09-28T05:08:14.631Z,8.20
2018-09-28T05:10:43.834Z,7.27
2018-09-28T05:13:13.234Z,7.57
2018-09-28T05:15:43.408Z,6.97
2018-09-28T05:18:12.479Z,7.50
2018-09-28T05:20:41.574Z,8.30
2018-09-28T05:23:10.652Z,6.70
2018-09-28T05:25:39.667Z,7.30
2018-09-28T05:28:09.032Z,7.80
2018-09-28T05:30:44.971Z,6.97
2018-09-28T05:33:07.941Z,8.20
2018-09-28T05:35:37.165Z,7.93
2018-09-28T05:38:06.068Z,7.30
2018-09-28T05:40:36.156Z,8.20
2018-09-28T05:43:05.400Z,8.17
2018-09-28T05:45:34.822Z,7.97
2018-09-28T05:48:03.949Z,8.27
2018-09-28T05:50:33.050Z,8.00
2018-09-28T05:53:02.323Z,9.20
2018-09-28T05:55:31.697Z,8.23
2018-09-28T05:58:05.842Z,8.33
2018-09-28T06:00:40.191Z,8.60
2018-09-28T06:03:16.366Z,7.90
2018-09-28T06:05:50.451Z,8.13
2018-09-28T06:08:19.480Z,9.23
2018-09-28T06:10:48.841Z,8.27
2018-09-28T06:13:18.660Z,7.97
2018-09-28T06:15:48.080Z,8.40
2018-09-28T06:18:17.343Z,8.67
2018-09-28T06:20:46.489Z,9.03
2018-09-28T06:23:15.515Z,9.03
2018-09-28T06:25:45.340Z,9.10
2018-09-28T06:28:14.623Z,8.60
2018-09-28T06:30:44.404Z,7.80
2018-09-28T06:33:13.796Z,6.90
2018-09-28T06:35:43.189Z,7.77
2018-09-28T06:38:12.441Z,7.93
2018-09-28T06:40:42.200Z,8.67
2018-09-28T06:43:11.871Z,8.50
2018-09-28T06:45:40.947Z,8.47
2018-09-28T06:48:10.383Z,8.73
2018-09-28T06:50:39.787Z,7.83
2018-09-28T06:53:08.908Z,8.93
2018-09-28T06:55:38.223Z,8.53
2018-09-28T06:58:07.653Z,9.53
2018-09-28T07:00:37.224Z,8.90
2018-09-28T07:03:07.151Z,8.27
2018-09-28T07:05:36.066Z,8.67
2018-09-28T07:08:05.512Z,9.07
2018-09-28T07:10:34.837Z,10.30
2018-09-28T07:13:04.027Z,9.00
2018-09-28T07:15:33.535Z,10.20
2018-09-28T07:18:02.665Z,9.70
2018-09-28T07:20:31.975Z,9.47
2018-09-28T07:23:01.157Z,9.67
2018-09-28T07:25:31.035Z,8.40
2018-09-28T07:28:00.384Z,10.47
2018-09-28T07:30:29.548Z,9.67
2018-09-28T07:32:58.683Z,10.40
2018-09-28T07:35:28.105Z,10.60
2018-09-28T07:37:57.116Z,10.00
2018-09-28T07:40:26.537Z,11.00
2018-09-28T07:42:55.796Z,10.63
2018-09-28T07:45:25.146Z,10.07
2018-09-28T07:47:54.344Z,9.80
2018-09-28T07:50:24.290Z,11.30
2018-09-28T07:52:53.574Z,10.50
2018-09-28T07:55:23.152Z,10.63
2018-09-28T07:57:52.457Z,9.63
2018-09-28T08:00:21.496Z,9.80
2018-09-28T08:02:51.299Z,10.60
2018-09-28T08:05:20.762Z,10.67
2018-09-28T08:07:49.857Z,10.20
2018-09-28T08:10:18.989Z,10.17
2018-09-28T08:12:48.021Z,10.20
2018-09-28T08:15:17.506Z,11.33
2018-09-28T08:17:46.690Z,9.90
2018-09-28T08:20:17.690Z,10.83
2018-09-28T08:22:47.250Z,9.33
2018-09-28T08:25:16.305Z,8.07
2018-09-28T08:27:45.495Z,10.13
2018-09-28T08:30:14.758Z,10.40
2018-09-28T08:32:44.096Z,9.50
2018-09-28T08:35:13.068Z,9.60
2018-09-28T08:37:42.834Z,8.97
2018-09-28T08:40:12.355Z,9.87
2018-09-28T08:42:42.024Z,10.10
2018-09-28T08:45:11.444Z,7.97
2018-09-28T08:47:40.657Z,9.53
2018-09-28T08:50:09.648Z,9.30
2018-09-28T08:52:38.847Z,8.50
2018-09-28T08:55:07.749Z,9.00
2018-09-28T08:57:37.931Z,8.30
2018-09-28T09:00:07.313Z,8.63
2018-09-28T09:02:36.624Z,8.50
2018-09-28T09:05:06.290Z,8.23
2018-09-28T09:07:35.417Z,8.10
2018-09-28T09:10:04.482Z,7.20
2018-09-28T09:12:33.739Z,6.47
2018-09-28T09:15:02.814Z,7.27
2018-09-28T09:17:31.999Z,6.70
2018-09-28T09:20:01.315Z,8.00
2018-09-28T09:22:30.563Z,7.13
2018-09-28T09:25:00.007Z,8.80
2018-09-28T09:27:29.591Z,9.40
2018-09-28T09:29:58.790Z,9.00
2018-09-28T09:32:28.032Z,8.07
2018-09-28T09:34:57.335Z,7.53
2018-09-28T09:37:28.159Z,8.93
2018-09-28T09:39:58.492Z,8.23
2018-09-28T09:42:27.614Z,8.53
2018-09-28T09:44:57.031Z,6.50
2018-09-28T09:47:26.275Z,7.13
2018-09-28T09:49:55.416Z,6.87
2018-09-28T09:52:25.011Z,7.60
2018-09-28T09:54:54.236Z,7.30
2018-09-28T09:57:23.380Z,7.33
2018-09-28T09:59:52.719Z,6.83
2018-09-28T10:02:27.098Z,6.63
2018-09-28T10:04:56.264Z,7.53
2018-09-28T10:07:25.565Z,7.13
2018-09-28T10:09:54.836Z,6.90
2018-09-28T10:12:24.670Z,6.50
2018-09-28T10:14:54.734Z,7.10
2018-09-28T10:17:24.167Z,5.97
2018-09-28T10:19:53.225Z,6.13
2018-09-28T10:22:22.630Z,6.23
2018-09-28T10:24:51.866Z,6.47
2018-09-28T10:27:20.931Z,5.03
2018-09-28T10:29:50.187Z,6.50
2018-09-28T10:32:20.139Z,5.80
2018-09-28T10:34:49.643Z,5.73
2018-09-28T10:37:18.988Z,4.80
2018-09-28T10:39:48.128Z,4.17
2018-09-28T10:42:17.142Z,3.37
2018-09-28T10:44:46.587Z,3.93
2018-09-28T10:47:15.671Z,4.40
2018-09-28T10:49:44.798Z,3.73
2018-09-28T10:52:15.325Z,4.00
2018-09-28T10:54:44.427Z,4.07
2018-09-28T10:57:14.316Z,3.90
2018-09-28T10:59:43.500Z,3.50
2018-09-28T11:02:12.837Z,2.93
2018-09-28T11:04:42.122Z,3.20
2018-09-28T11:07:11.403Z,3.73
2018-09-28T11:09:40.713Z,3.50
2018-09-28T11:12:10.880Z,3.47
2018-09-28T11:14:40.138Z,3.23
2018-09-28T11:17:09.979Z,3.53
2018-09-28T11:19:40.036Z,3.33
2018-09-28T11:22:09.280Z,3.47
2018-09-28T11:24:38.740Z,3.33
2018-09-28T11:27:08.009Z,3.20
2018-09-28T11:29:37.244Z,3.50
2018-09-28T11:32:06.647Z,3.00
2018-09-28T11:34:35.754Z,2.97
2018-09-28T11:37:04.861Z,2.87
2018-09-28T11:39:33.863Z,3.00
2018-09-28T11:42:03.171Z,2.47
2018-09-28T11:44:32.227Z,2.90
2018-09-28T11:47:01.364Z,2.90
2018-09-28T11:49:30.500Z,2.90
2018-09-28T11:51:59.745Z,2.87
2018-09-28T11:54:28.733Z,3.03
2018-09-28T11:56:57.952Z,3.00
2018-09-28T11:59:27.054Z,3.13
2018-09-28T12:01:56.104Z,2.87
2018-09-28T12:04:25.291Z,2.37
2018-09-28T12:06:54.578Z,3.43
2018-09-28T12:09:23.887Z,3.60
2018-09-28T12:11:53.921Z,2.93
2018-09-28T12:14:23.272Z,3.30
2018-09-28T12:16:52.358Z,2.93
2018-09-28T12:19:21.707Z,3.30
2018-09-28T12:21:51.032Z,2.90
2018-09-28T12:24:20.695Z,3.50
2018-09-28T12:26:50.053Z,3.50
2018-09-28T12:29:19.448Z,3.60
2018-09-28T12:31:48.578Z,2.83
2018-09-28T12:34:17.750Z,2.80
2018-09-28T12:36:46.994Z,2.87
2018-09-28T12:39:16.358Z,3.30
2018-09-28T12:41:46.113Z,2.70
2018-09-28T12:44:15.504Z,3.00
2018-09-28T12:46:44.959Z,3.23
2018-09-28T12:49:14.705Z,3.30
2018-09-28T12:51:43.964Z,3.67
2018-09-28T12:54:13.182Z,3.50
2018-09-28T12:56:42.869Z,3.60
2018-09-28T12:59:12.195Z,4.03
2018-09-28T13:01:42.103Z,4.50
2018-09-28T13:04:16.938Z,4.27
2018-09-28T13:06:47.513Z,4.57
2018-09-28T13:09:16.719Z,4.53
2018-09-28T13:11:46.515Z,4.90
2018-09-28T13:14:15.780Z,5.10
2018-09-28T13:16:45.419Z,4.77
2018-09-28T13:19:14.680Z,5.80
2018-09-28T13:21:44.631Z,5.97
2018-09-28T13:24:14.249Z,4.50
2018-09-28T13:26:43.506Z,5.23
2018-09-28T13:29:12.879Z,6.67
2018-09-28T13:31:42.084Z,5.10
2018-09-28T13:34:11.015Z,6.00
2018-09-28T13:36:41.075Z,5.60
2018-09-28T13:39:10.247Z,6.20
2018-09-28T13:41:39.688Z,5.33
2018-09-28T13:44:08.750Z,5.27
2018-09-28T13:46:38.134Z,6.93
2018-09-28T13:49:07.656Z,5.73
2018-09-28T13:51:37.060Z,6.20
2018-09-28T13:54:06.098Z,6.03
2018-09-28T13:56:35.485Z,5.87
2018-09-28T13:59:04.817Z,5.70
2018-09-28T14:01:33.921Z,5.07
2018-09-28T14:04:02.909Z,4.50
2018-09-28T14:06:32.461Z,4.63
2018-09-28T14:09:01.891Z,4.83
2018-09-28T14:11:31.239Z,4.87
2018-09-28T14:14:00.492Z,5.43
2018-09-28T14:16:30.102Z,4.80
2018-09-28T14:18:59.275Z,5.03
2018-09-28T14:21:28.646Z,5.07
2018-09-28T14:23:58.141Z,4.93
2018-09-28T14:26:27.530Z,4.60
2018-09-28T14:28:56.683Z,4.60
2018-09-28T14:31:26.265Z,5.53
2018-09-28T14:33:55.240Z,6.40
2018-09-28T14:36:24.747Z,4.90
2018-09-28T14:38:54.014Z,5.00
2018-09-28T14:41:23.280Z,4.83
2018-09-28T14:43:52.649Z,5.50
2018-09-28T14:46:22.188Z,4.90
2018-09-28T14:48:51.611Z,5.00
2018-09-28T14:51:20.657Z,5.30
2018-09-28T14:53:49.883Z,4.33
2018-09-28T14:56:19.289Z,4.40
2018-09-28T14:58:48.675Z,3.90
2018-09-28T15:01:17.860Z,4.53
2018-09-28T15:03:47.287Z,4.00
2018-09-28T15:06:16.647Z,4.00
2018-09-28T15:08:46.159Z,4.10
2018-09-28T15:11:15.752Z,4.60
2018-09-28T15:13:44.788Z,3.87
2018-09-28T15:16:13.867Z,3.20
2018-09-28T15:18:43.165Z,4.00
2018-09-28T15:21:12.900Z,3.23
2018-09-28T15:23:41.952Z,3.83
2018-09-28T15:26:11.213Z,3.63
2018-09-28T15:28:41.003Z,3.47
2018-09-28T15:31:10.586Z,3.50
2018-09-28T15:33:39.615Z,3.30
2018-09-28T15:36:08.688Z,3.03
2018-09-28T15:38:38.059Z,3.37
2018-09-28T15:41:07.300Z,3.00
2018-09-28T15:43:36.580Z,3.23
2018-09-28T15:46:06.811Z,4.00
2018-09-28T15:48:36.405Z,3.53
2018-09-28T15:51:05.896Z,3.33
2018-09-28T15:53:35.409Z,3.13
2018-09-28T15:56:04.593Z,3.30
2018-09-28T15:58:34.193Z,3.47
2018-09-28T16:01:03.243Z,3.00
2018-09-28T16:03:32.338Z,3.20
2018-09-28T16:06:01.318Z,3.80
2018-09-28T16:08:30.504Z,3.50
2018-09-28T16:10:59.902Z,3.43
2018-09-28T16:13:29.084Z,3.20
2018-09-28T16:15:58.787Z,3.83
2018-09-28T16:18:28.029Z,3.63
2018-09-28T16:20:57.196Z,3.50
2018-09-28T16:23:26.149Z,3.60
2018-09-28T16:25:55.160Z,3.70
2018-09-28T16:28:24.272Z,4.00
2018-09-28T16:30:53.653Z,3.47
2018-09-28T16:33:22.927Z,3.83
2018-09-28T16:35:52.286Z,3.50
2018-09-28T16:38:22.004Z,3.43
2018-09-28T16:40:51.389Z,3.30
2018-09-28T16:43:20.253Z,3.80
2018-09-28T16:45:49.979Z,4.33
2018-09-28T16:48:19.498Z,3.90
2018-09-28T16:50:48.590Z,3.60
2018-09-28T16:53:20.447Z,3.70
2018-09-28T16:55:49.700Z,3.73
2018-09-28T16:58:18.892Z,3.70
2018-09-28T17:00:48.184Z,4.20
2018-09-28T17:03:17.655Z,4.00
2018-09-28T17:05:47.585Z,3.50
2018-09-28T17:08:16.858Z,4.43
2018-09-28T17:10:45.963Z,3.50
2018-09-28T17:13:15.270Z,4.13
2018-09-28T17:15:44.359Z,3.60
2018-09-28T17:18:13.626Z,4.07
2018-09-28T17:20:42.999Z,3.77
2018-09-28T17:23:11.954Z,3.40
2018-09-28T17:25:41.250Z,4.03
2018-09-28T17:28:11.570Z,4.37
2018-09-28T17:30:41.055Z,4.23
2018-09-28T17:33:11.052Z,4.30
2018-09-28T17:35:40.708Z,4.80
2018-09-28T17:38:10.243Z,4.50
2018-09-28T17:40:39.594Z,4.93
2018-09-28T17:43:09.086Z,4.20
2018-09-28T17:45:39.464Z,4.30
2018-09-28T17:48:08.479Z,4.50
2018-09-28T17:50:38.145Z,4.20
2018-09-28T17:53:07.557Z,4.70
2018-09-28T17:55:36.838Z,3.90
2018-09-28T17:58:06.061Z,4.60
2018-09-28T18:00:35.495Z,3.27
2018-09-28T18:03:04.565Z,4.17
2018-09-28T18:05:33.661Z,3.27
2018-09-28T18:08:02.987Z,3.47
2018-09-28T18:10:32.072Z,4.17
2018-09-28T18:13:01.292Z,3.70
2018-09-28T18:15:30.933Z,4.77
2018-09-28T18:18:00.124Z,3.83
2018-09-28T18:20:29.112Z,4.07
2018-09-28T18:22:58.320Z,4.13
2018-09-28T18:25:27.811Z,4.40
2018-09-28T18:27:57.017Z,4.10
2018-09-28T18:30:26.254Z,3.93
2018-09-28T18:32:55.384Z,4.73
2018-09-28T18:35:24.911Z,4.13
2018-09-28T18:37:54.395Z,4.40
2018-09-28T18:40:23.830Z,4.50
2018-09-28T18:42:53.129Z,4.70
2018-09-28T18:45:22.268Z,4.93
2018-09-28T18:47:51.769Z,5.93
2018-09-28T18:50:20.942Z,5.67
2018-09-28T18:52:50.043Z,6.07
2018-09-28T18:55:19.669Z,5.70
2018-09-28T18:57:48.778Z,7.80
2018-09-28T19:00:17.947Z,9.90
2018-09-28T19:02:47.056Z,9.67
2018-09-28T19:05:16.257Z,10.03
2018-09-28T19:07:45.405Z,9.37
2018-09-28T19:10:14.641Z,10.57
2018-09-28T19:12:44.069Z,10.87
2018-09-28T19:15:13.460Z,10.83
2018-09-28T19:17:43.584Z,11.40
2018-09-28T19:20:19.017Z,8.93
2018-09-28T19:22:48.470Z,11.23
2018-09-28T19:25:17.759Z,9.70
2018-09-28T19:27:47.294Z,8.77
2018-09-28T19:30:16.487Z,9.77
2018-09-28T19:32:45.700Z,10.60
2018-09-28T19:35:15.108Z,10.07
2018-09-28T19:37:43.938Z,10.37
2018-09-28T19:40:12.902Z,9.10
2018-09-28T19:42:42.254Z,10.33
2018-09-28T19:45:11.405Z,7.57
2018-09-28T19:47:40.546Z,9.70
2018-09-28T19:50:10.001Z,8.97
2018-09-28T19:52:39.198Z,10.13
2018-09-28T19:55:08.727Z,6.30
2018-09-28T19:57:37.938Z,10.40
2018-09-28T20:00:07.545Z,7.80
2018-09-28T20:02:36.640Z,9.10
2018-09-28T20:05:06.428Z,9.60
2018-09-28T20:07:35.592Z,9.87
2018-09-28T20:10:05.039Z,7.60
2018-09-28T20:12:34.152Z,7.07
2018-09-28T20:15:03.252Z,7.03
2018-09-28T20:17:32.390Z,8.17
2018-09-28T20:20:01.693Z,7.80
2018-09-28T20:22:30.904Z,6.83
2018-09-28T20:25:00.158Z,7.80
2018-09-28T20:27:29.648Z,7.43
2018-09-28T20:29:59.322Z,7.57
2018-09-28T20:32:28.403Z,7.37
2018-09-28T20:34:57.666Z,7.70
2018-09-28T20:37:27.205Z,6.33
2018-09-28T20:39:56.189Z,6.17
2018-09-28T20:42:25.222Z,8.50
2018-09-28T20:44:54.436Z,5.60
2018-09-28T20:47:23.674Z,6.57
2018-09-28T20:49:53.358Z,6.40
2018-09-28T20:52:22.565Z,5.87
2018-09-28T20:54:51.651Z,5.90
2018-09-28T20:57:21.049Z,6.33
2018-09-28T20:59:50.389Z,7.00
2018-09-28T21:02:20.306Z,4.40
2018-09-28T21:04:49.453Z,5.80
2018-09-28T21:07:18.720Z,6.20
2018-09-28T21:09:47.839Z,6.40
2018-09-28T21:12:17.240Z,6.27
2018-09-28T21:14:46.692Z,5.43
2018-09-28T21:17:16.495Z,5.90
2018-09-28T21:19:46.406Z,6.00
2018-09-28T21:22:15.734Z,6.20
2018-09-28T21:24:45.148Z,5.47
2018-09-28T21:27:14.460Z,6.43
2018-09-28T21:29:43.587Z,5.93
2018-09-28T21:32:13.729Z,4.90
2018-09-28T21:34:43.622Z,4.90
2018-09-28T21:37:12.638Z,4.70
2018-09-28T21:39:41.742Z,5.40
2018-09-28T21:42:10.992Z,4.80
2018-09-28T21:44:40.126Z,4.70
2018-09-28T21:47:09.919Z,4.17
2018-09-28T21:49:39.008Z,5.00
2018-09-28T21:52:08.279Z,4.40
2018-09-28T21:54:37.285Z,4.63
2018-09-28T21:57:07.135Z,4.70
2018-09-28T21:59:36.146Z,4.43
2018-09-28T22:02:05.496Z,4.17
2018-09-28T22:04:34.599Z,4.20
2018-09-28T22:07:03.821Z,3.67
2018-09-28T22:09:33.266Z,4.40
2018-09-28T22:12:02.418Z,4.70
2018-09-28T22:14:31.817Z,4.00
2018-09-28T22:17:01.190Z,3.83
2018-09-28T22:19:30.183Z,3.30
2018-09-28T22:21:59.323Z,3.90
2018-09-28T22:24:28.508Z,4.20
2018-09-28T22:26:57.839Z,4.40
2018-09-28T22:29:27.063Z,4.00
2018-09-28T22:31:56.203Z,3.40
2018-09-28T22:34:25.499Z,4.03
2018-09-28T22:36:54.596Z,3.80
2018-09-28T22:39:23.768Z,3.00
2018-09-28T22:41:52.891Z,3.57
2018-09-28T22:44:23.035Z,3.73
2018-09-28T22:46:52.351Z,3.43
2018-09-28T22:49:21.326Z,3.33
2018-09-28T22:51:50.895Z,2.80
2018-09-28T22:54:20.060Z,3.33
2018-09-28T22:56:50.426Z,3.20
2018-09-28T22:59:19.451Z,3.93
2018-09-28T23:01:48.539Z,3.20
2018-09-28T23:04:17.833Z,3.27
2018-09-28T23:06:47.095Z,3.23
2018-09-28T23:09:16.238Z,3.23
2018-09-28T23:11:45.643Z,3.47
2018-09-28T23:14:14.893Z,3.33
2018-09-28T23:16:44.055Z,3.00
2018-09-28T23:19:13.524Z,3.27
2018-09-28T23:21:43.024Z,3.10
2018-09-28T23:24:12.222Z,3.20
2018-09-28T23:26:41.325Z,3.07
2018-09-28T23:29:10.988Z,2.97
2018-09-28T23:31:40.302Z,3.10
2018-09-28T23:34:09.410Z,2.90
2018-09-28T23:36:38.390Z,2.63
2018-09-28T23:39:09.059Z,2.63
2018-09-28T23:41:38.749Z,2.83
2018-09-28T23:44:08.715Z,2.83
2018-09-28T23:46:37.788Z,3.00
2018-09-28T23:49:07.574Z,2.63
2018-09-28T23:51:36.806Z,2.50
2018-09-28T23:54:06.479Z,3.00
2018-09-28T23:56:35.517Z,2.53
2018-09-28T23:59:04.433Z,3.23
